James Turecamo — WDC7565 — position and weather

sailwx.info

Track history (hours):
 
Tides and Currents Weather Stations Pressure Air Temp Water Temp Dewpoint Dewpoint Depression Visibility Wind Speed Wind Dir Waves Ship Positions

James Turecamo

Owner: Moran Towing Corporation, New Canaan, CT. More information available from US FCC via Universal Licensing System and Coast Guard Vessel Documentation Center.

Last reported at 2014-Oct-01 21:33 UTC. Time now 2014-Oct-01 22:20 UTC.
Position N 40°41' W 074°01'.

Length 27 m; draft 4.5 m.

Type: Tug. MMSI: 367073380.

Date/timePositionNaut miles runAvg speedWind from/ knotsBaromVisibWave heightAir tempDewpointWater temp
2014-Oct-01 21:33N 40°41' W 074°01'7 3.7
2014-Oct-01 19:31N 40°47' W 073°55'5 4.7
2014-Oct-01 18:33N 40°43' W 073°58'2 2.5
2014-Oct-01 17:33N 40°41' W 074°00'6 6.5
2014-Oct-01 16:33N 40°38' W 074°08'0 0.0
2014-Oct-01 15:33N 40°38' W 074°08'0 0.0
2014-Oct-01 14:33N 40°38' W 074°08'0 0.0
2014-Oct-01 13:33N 40°38' W 074°08'0 0.0
2014-Oct-01 12:33N 40°38' W 074°08'0 0.0
2014-Oct-01 11:33N 40°38' W 074°08'4 0.7
2014-Oct-01 06:13N 40°36' W 074°12'7 2.7
2014-Oct-01 03:31N 40°30' W 074°16'9 4.2
2014-Oct-01 01:28N 40°38' W 074°12'2 2.4
2014-Oct-01 00:33N 40°39' W 074°10'1 1.0
2014-Sep-30 23:05N 40°38' W 074°08'0 0.0
2014-Sep-30 22:31N 40°38' W 074°08'0 0.0
2014-Sep-30 21:33N 40°38' W 074°08'0 0.0
2014-Sep-30 20:33N 40°38' W 074°08'0 0.0
2014-Sep-30 19:33N 40°38' W 074°08'3 3.1
2014-Sep-30 18:33N 40°38' W 074°12'1 0.7
2014-Sep-30 17:26N 40°37' W 074°12'4 5.0
2014-Sep-30 16:33N 40°39' W 074°07'1 0.5
2014-Sep-30 14:31N 40°38' W 074°08'0 0.0
2014-Sep-30 13:33N 40°38' W 074°08'0 0.0
2014-Sep-30 12:04N 40°38' W 074°08'0 0.0
2014-Sep-30 11:27N 40°38' W 074°08'0 0.0
2014-Sep-30 10:33N 40°38' W 074°08'1 0.7
2014-Sep-30 09:08N 40°39' W 074°07'1 1.8
2014-Sep-30 08:33N 40°38' W 074°08'3 3.1
2014-Sep-30 07:33N 40°38' W 074°12'5 4.2
2014-Sep-30 06:22N 40°33' W 074°14'0 0.1
2014-Sep-30 05:30N 40°34' W 074°14'7 7.0
2014-Sep-30 04:33N 40°39' W 074°09'1 1.0
2014-Sep-30 03:33N 40°38' W 074°08'0 0.0
2014-Sep-30 02:33N 40°38' W 074°08'0 0.0
2014-Sep-30 01:32N 40°38' W 074°08'0 0.0
2014-Sep-30 00:33N 40°38' W 074°08'0 0.0
2014-Sep-29 23:33N 40°38' W 074°08'0 0.0
2014-Sep-29 22:33N 40°38' W 074°08'0 0.0
2014-Sep-29 21:32N 40°38' W 074°08'0 0.0
2014-Sep-29 20:33N 40°38' W 074°08'3 2.9
2014-Sep-29 19:33N 40°38' W 074°04'1 0.6
2014-Sep-29 18:33N 40°38' W 074°03'3 3.4
2014-Sep-29 17:33N 40°39' W 074°08'0 0.1
2014-Sep-29 16:26N 40°38' W 074°08'0 0.0
2014-Sep-29 15:33N 40°38' W 074°08'0 0.0
2014-Sep-29 14:30N 40°38' W 074°08'0 0.0
2014-Sep-29 13:32N 40°38' W 074°08'0 0.0
2014-Sep-29 12:31N 40°38' W 074°08'0 0.0
2014-Sep-29 11:33N 40°38' W 074°08'1 0.7
2014-Sep-29 10:33N 40°39' W 074°07'2 1.9
2014-Sep-29 09:33N 40°40' W 074°08'2 1.6
2014-Sep-29 08:33N 40°39' W 074°09'1 1.0
2014-Sep-29 07:33N 40°38' W 074°08'0 0.0
2014-Sep-29 06:33N 40°38' W 074°08'0 0.0
2014-Sep-29 05:33N 40°38' W 074°08'0 0.0
2014-Sep-29 04:30N 40°38' W 074°08'2 1.2
2014-Sep-29 02:33N 40°39' W 074°05'2 1.6
2014-Sep-29 01:33N 40°39' W 074°07'1 0.8
2014-Sep-29 00:31N 40°38' W 074°08'0 0.0
2014-Sep-28 23:33N 40°38' W 074°08'0 0.0
2014-Sep-28 22:33N 40°38' W 074°08'0 0.0
2014-Sep-28 21:30N 40°38' W 074°08'0 0.0
2014-Sep-28 20:32N 40°38' W 074°08'8 5.4
2014-Sep-28 19:07N 40°46' W 074°05'3 1.8
2014-Sep-28 17:23N 40°48' W 074°03'3 4.1
2014-Sep-28 16:32N 40°46' W 074°06'2 2.5
2014-Sep-28 15:33N 40°43' W 074°06'1 1.3
2014-Sep-28 14:33N 40°42' W 074°07'4 3.7
2014-Sep-28 13:33N 40°38' W 074°08'0 0.0
2014-Sep-28 12:33N 40°38' W 074°08'0 0.0
2014-Sep-28 11:33N 40°38' W 074°08'0 0.0
2014-Sep-28 10:33N 40°38' W 074°08'0 0.0
2014-Sep-28 09:34N 40°38' W 074°08'0 0.0
2014-Sep-28 08:33N 40°38' W 074°08'0 0.0
2014-Sep-28 07:33N 40°38' W 074°08'0 0.0
2014-Sep-28 06:33N 40°38' W 074°08'0 0.0
2014-Sep-28 05:32N 40°38' W 074°08'0 0.0
2014-Sep-28 04:33N 40°38' W 074°08'0 0.0
2014-Sep-28 03:15N 40°38' W 074°08'0 0.0
2014-Sep-28 02:31N 40°38' W 074°08'3 3.3
2014-Sep-28 01:31N 40°42' W 074°08'3 3.5
2014-Sep-28 00:33N 40°39' W 074°06'2 2.1
2014-Sep-27 23:33N 40°38' W 074°03'3 3.2
2014-Sep-27 22:31N 40°38' W 074°08'0 0.0
2014-Sep-27 20:31N 40°38' W 074°08'0 0.0
2014-Sep-27 16:32N 40°38' W 074°08'0 0.0
2014-Sep-27 15:31N 40°38' W 074°08'0 0.0
2014-Sep-27 14:30N 40°38' W 074°08'1 0.8
2014-Sep-27 13:33N 40°39' W 074°07'1 0.7
2014-Sep-27 12:30N 40°39' W 074°06'1 1.2
2014-Sep-27 11:32N 40°39' W 074°07'3 1.4
2014-Sep-27 09:33N 40°41' W 074°08'3 2.7
2014-Sep-27 08:33N 40°38' W 074°08'0 0.0
2014-Sep-27 07:33N 40°38' W 074°08'0 0.0
2014-Sep-27 06:33N 40°38' W 074°08'0 0.0
2014-Sep-27 05:33N 40°38' W 074°08'0 0.0
2014-Sep-27 04:33N 40°38' W 074°08'0 0.0
2014-Sep-27 03:33N 40°38' W 074°08'2 1.6
2014-Sep-27 02:34N 40°39' W 074°06'1 1.0
2014-Sep-27 01:33N 40°39' W 074°04'4 3.6
2014-Sep-27 00:33N 40°42' W 074°02'4 3.9
2014-Sep-26 23:34N 40°39' W 074°05'2 1.7
2014-Sep-26 22:16N 40°38' W 074°08'0 0.0
2014-Sep-26 20:23N 40°38' W 074°08'0 0.0
2014-Sep-26 19:33N 40°38' W 074°08'0 0.0
2014-Sep-26 18:33N 40°38' W 074°08'0 0.0
2014-Sep-26 17:33N 40°38' W 074°08'0 0.0
2014-Sep-26 16:33N 40°38' W 074°08'0 0.0
2014-Sep-26 15:32N 40°38' W 074°08'0 0.0
2014-Sep-26 14:33N 40°38' W 074°08'0 0.0
2014-Sep-26 13:33N 40°38' W 074°08'0 0.0
2014-Sep-26 12:33N 40°38' W 074°08'3 2.3
2014-Sep-26 11:06N 40°42' W 074°08'2 4.2
2014-Sep-26 10:33N 40°39' W 074°09'3 3.4
2014-Sep-26 09:34N 40°40' W 074°04'0 0.2
2014-Sep-26 08:33N 40°40' W 074°04'1 0.9
2014-Sep-26 07:33N 40°39' W 074°05'2 2.2
2014-Sep-26 06:33N 40°38' W 074°08'0 0.0
2014-Sep-26 05:31N 40°38' W 074°08'0 0.0
2014-Sep-26 04:30N 40°38' W 074°08'0 0.0
2014-Sep-26 03:33N 40°38' W 074°08'0 0.0
2014-Sep-26 02:33N 40°38' W 074°08'0 0.0
2014-Sep-26 01:31N 40°38' W 074°08'0 0.0
2014-Sep-26 00:33N 40°38' W 074°08'0 0.0
2014-Sep-25 21:09N 40°39' W 074°08'0 0.1
2014-Sep-25 19:33N 40°38' W 074°08'0 0.0
2014-Sep-25 18:22N 40°38' W 074°08'0 0.0
2014-Sep-25 17:32N 40°38' W 074°08'0 0.0
2014-Sep-25 16:10N 40°38' W 074°08'0 0.0
2014-Sep-25 15:33N 40°38' W 074°08'0 0.0
2014-Sep-25 14:33N 40°38' W 074°08'0 0.0
2014-Sep-25 13:30N 40°38' W 074°08'0 0.0
2014-Sep-25 12:33N 40°38' W 074°08'0 0.0
2014-Sep-25 11:33N 40°38' W 074°08'0 0.0
2014-Sep-25 10:33N 40°38' W 074°08'0 0.0
2014-Sep-25 09:33N 40°38' W 074°08'0 0.0
2014-Sep-25 08:33N 40°38' W 074°08'0 0.0
2014-Sep-25 07:33N 40°38' W 074°08'0 0.0
2014-Sep-25 06:32N 40°38' W 074°08'0 0.0
2014-Sep-25 05:33N 40°38' W 074°08'0 0.0
2014-Sep-25 04:32N 40°38' W 074°08'0 0.0
2014-Sep-25 03:26N 40°38' W 074°08'0 0.0
2014-Sep-25 02:32N 40°38' W 074°08'0 0.0
2014-Sep-25 01:33N 40°38' W 074°08'0 0.0
2014-Sep-25 00:33N 40°38' W 074°08'0 0.0
2014-Sep-24 23:32N 40°38' W 074°08'0 0.0
2014-Sep-24 22:21N 40°38' W 074°08'0 0.0
2014-Sep-24 19:31N 40°38' W 074°08'0 0.0
2014-Sep-24 18:33N 40°38' W 074°08'0 0.0
2014-Sep-24 17:33N 40°38' W 074°08'0 0.0
2014-Sep-24 15:13N 40°38' W 074°08'0 0.0
2014-Sep-24 14:33N 40°38' W 074°08'0 0.0
2014-Sep-24 13:33N 40°38' W 074°08'0 0.0
2014-Sep-24 12:32N 40°38' W 074°08'0 0.0
2014-Sep-24 11:33N 40°38' W 074°08'1 0.8
2014-Sep-24 10:34N 40°38' W 074°09'2 1.9
2014-Sep-24 09:30N 40°40' W 074°08'2 2.0
2014-Sep-24 08:30N 40°38' W 074°08'10 3.2
2014-Sep-24 05:15N 40°48' W 074°04'5 1.2
2014-Sep-24 01:25N 40°44' W 074°06'3 1.6
2014-Sep-23 23:32N 40°41' W 074°08'3 2.8
2014-Sep-23 22:33N 40°38' W 074°08'0 0.0
2014-Sep-23 21:28N 40°38' W 074°08'0 0.0
2014-Sep-23 20:23N 40°38' W 074°08'0 0.0
2014-Sep-23 19:33N 40°38' W 074°08'7 6.1
2014-Sep-23 18:24N 40°33' W 074°14'1 0.3
2014-Sep-23 15:08N 40°33' W 074°15'5 8.0
2014-Sep-23 14:28N 40°38' W 074°12'4 3.5
2014-Sep-23 13:28N 40°38' W 074°08'0 0.0
2014-Sep-23 12:33N 40°38' W 074°08'0 0.0
2014-Sep-23 11:32N 40°38' W 074°08'0 0.0
2014-Sep-23 10:17N 40°38' W 074°08'0 0.0
2014-Sep-23 08:14N 40°38' W 074°08'0 0.0
2014-Sep-23 07:23N 40°38' W 074°08'0 0.0
2014-Sep-23 04:29N 40°38' W 074°08'0 0.0
2014-Sep-23 03:22N 40°38' W 074°08'0 0.0
2014-Sep-22 23:29N 40°38' W 074°08'2 2.4
2014-Sep-22 22:33N 40°41' W 074°08'1 0.5
2014-Sep-22 21:27N 40°41' W 074°08'2 1.8
2014-Sep-22 20:33N 40°40' W 074°08'1 0.5
2014-Sep-22 18:04N 40°38' W 074°08'0 0.0
2014-Sep-22 17:13N 40°38' W 074°08'0 0.0
2014-Sep-22 16:31N 40°38' W 074°08'0 0.0
2014-Sep-22 15:26N 40°38' W 074°08'0 0.0
2014-Sep-22 14:33N 40°38' W 074°08'0 0.0
2014-Sep-22 13:30N 40°38' W 074°08'0 0.0
2014-Sep-22 12:33N 40°38' W 074°08'0 0.0
2014-Sep-22 11:23N 40°38' W 074°08'3 3.6
2014-Sep-22 10:25N 40°42' W 074°09'1 1.2
2014-Sep-22 09:25N 40°41' W 074°08'2 2.7
2014-Sep-22 08:34N 40°38' W 074°08'0 0.0
2014-Sep-22 07:33N 40°38' W 074°08'0 0.0
2014-Sep-22 06:33N 40°38' W 074°08'0 0.0
2014-Sep-22 05:33N 40°38' W 074°08'0 0.0
2014-Sep-22 04:34N 40°38' W 074°08'0 0.0
2014-Sep-22 03:33N 40°38' W 074°08'0 0.0
2014-Sep-22 02:33N 40°38' W 074°08'0 0.0
2014-Sep-22 01:33N 40°38' W 074°08'0 0.0
2014-Sep-22 00:04N 40°38' W 074°08'0 0.0
2014-Sep-21 23:29N 40°38' W 074°08'0 0.0
2014-Sep-21 22:32N 40°38' W 074°08'  
Track history (hours):
 
Tides and Currents Weather Stations Pressure Air Temp Water Temp Dewpoint Dewpoint Depression Visibility Wind Speed Wind Dir Waves Ship Positions

James Turecamo

Owner: Moran Towing Corporation, New Canaan, CT. More information available from US FCC via Universal Licensing System and Coast Guard Vessel Documentation Center.

Last reported at 2014-Oct-01 21:33 UTC. Time now 2014-Oct-01 22:20 UTC.
Position N 40°41' W 074°01'.

Length 27 m; draft 4.5 m.

Type: Tug. MMSI: 367073380.

Date/timePositionNaut miles runAvg speedWind from/ knotsBaromVisibWave heightAir tempDewpointWater temp
2014-Oct-01 21:33N 40°41' W 074°01'7 3.7
2014-Oct-01 19:31N 40°47' W 073°55'5 4.7
2014-Oct-01 18:33N 40°43' W 073°58'2 2.5
2014-Oct-01 17:33N 40°41' W 074°00'6 6.5
2014-Oct-01 16:33N 40°38' W 074°08'0 0.0
2014-Oct-01 15:33N 40°38' W 074°08'0 0.0
2014-Oct-01 14:33N 40°38' W 074°08'0 0.0
2014-Oct-01 13:33N 40°38' W 074°08'0 0.0
2014-Oct-01 12:33N 40°38' W 074°08'0 0.0
2014-Oct-01 11:33N 40°38' W 074°08'4 0.7
2014-Oct-01 06:13N 40°36' W 074°12'7 2.7
2014-Oct-01 03:31N 40°30' W 074°16'9 4.2
2014-Oct-01 01:28N 40°38' W 074°12'2 2.4
2014-Oct-01 00:33N 40°39' W 074°10'1 1.0
2014-Sep-30 23:05N 40°38' W 074°08'0 0.0
2014-Sep-30 22:31N 40°38' W 074°08'0 0.0
2014-Sep-30 21:33N 40°38' W 074°08'0 0.0
2014-Sep-30 20:33N 40°38' W 074°08'0 0.0
2014-Sep-30 19:33N 40°38' W 074°08'3 3.1
2014-Sep-30 18:33N 40°38' W 074°12'1 0.7
2014-Sep-30 17:26N 40°37' W 074°12'4 5.0
2014-Sep-30 16:33N 40°39' W 074°07'1 0.5
2014-Sep-30 14:31N 40°38' W 074°08'0 0.0
2014-Sep-30 13:33N 40°38' W 074°08'0 0.0
2014-Sep-30 12:04N 40°38' W 074°08'0 0.0
2014-Sep-30 11:27N 40°38' W 074°08'0 0.0
2014-Sep-30 10:33N 40°38' W 074°08'1 0.7
2014-Sep-30 09:08N 40°39' W 074°07'1 1.8
2014-Sep-30 08:33N 40°38' W 074°08'3 3.1
2014-Sep-30 07:33N 40°38' W 074°12'5 4.2
2014-Sep-30 06:22N 40°33' W 074°14'0 0.1
2014-Sep-30 05:30N 40°34' W 074°14'7 7.0
2014-Sep-30 04:33N 40°39' W 074°09'1 1.0
2014-Sep-30 03:33N 40°38' W 074°08'0 0.0
2014-Sep-30 02:33N 40°38' W 074°08'0 0.0
2014-Sep-30 01:32N 40°38' W 074°08'0 0.0
2014-Sep-30 00:33N 40°38' W 074°08'0 0.0
2014-Sep-29 23:33N 40°38' W 074°08'0 0.0
2014-Sep-29 22:33N 40°38' W 074°08'0 0.0
2014-Sep-29 21:32N 40°38' W 074°08'0 0.0
2014-Sep-29 20:33N 40°38' W 074°08'3 2.9
2014-Sep-29 19:33N 40°38' W 074°04'1 0.6
2014-Sep-29 18:33N 40°38' W 074°03'3 3.4
2014-Sep-29 17:33N 40°39' W 074°08'0 0.1
2014-Sep-29 16:26N 40°38' W 074°08'0 0.0
2014-Sep-29 15:33N 40°38' W 074°08'0 0.0
2014-Sep-29 14:30N 40°38' W 074°08'0 0.0
2014-Sep-29 13:32N 40°38' W 074°08'0 0.0
2014-Sep-29 12:31N 40°38' W 074°08'0 0.0
2014-Sep-29 11:33N 40°38' W 074°08'1 0.7
2014-Sep-29 10:33N 40°39' W 074°07'2 1.9
2014-Sep-29 09:33N 40°40' W 074°08'2 1.6
2014-Sep-29 08:33N 40°39' W 074°09'1 1.0
2014-Sep-29 07:33N 40°38' W 074°08'0 0.0
2014-Sep-29 06:33N 40°38' W 074°08'0 0.0
2014-Sep-29 05:33N 40°38' W 074°08'0 0.0
2014-Sep-29 04:30N 40°38' W 074°08'2 1.2
2014-Sep-29 02:33N 40°39' W 074°05'2 1.6
2014-Sep-29 01:33N 40°39' W 074°07'1 0.8
2014-Sep-29 00:31N 40°38' W 074°08'0 0.0
2014-Sep-28 23:33N 40°38' W 074°08'0 0.0
2014-Sep-28 22:33N 40°38' W 074°08'0 0.0
2014-Sep-28 21:30N 40°38' W 074°08'0 0.0
2014-Sep-28 20:32N 40°38' W 074°08'8 5.4
2014-Sep-28 19:07N 40°46' W 074°05'3 1.8
2014-Sep-28 17:23N 40°48' W 074°03'3 4.1
2014-Sep-28 16:32N 40°46' W 074°06'2 2.5
2014-Sep-28 15:33N 40°43' W 074°06'1 1.3
2014-Sep-28 14:33N 40°42' W 074°07'4 3.7
2014-Sep-28 13:33N 40°38' W 074°08'0 0.0
2014-Sep-28 12:33N 40°38' W 074°08'0 0.0
2014-Sep-28 11:33N 40°38' W 074°08'0 0.0
2014-Sep-28 10:33N 40°38' W 074°08'0 0.0
2014-Sep-28 09:34N 40°38' W 074°08'0 0.0
2014-Sep-28 08:33N 40°38' W 074°08'0 0.0
2014-Sep-28 07:33N 40°38' W 074°08'0 0.0
2014-Sep-28 06:33N 40°38' W 074°08'0 0.0
2014-Sep-28 05:32N 40°38' W 074°08'0 0.0
2014-Sep-28 04:33N 40°38' W 074°08'0 0.0
2014-Sep-28 03:15N 40°38' W 074°08'0 0.0
2014-Sep-28 02:31N 40°38' W 074°08'3 3.3
2014-Sep-28 01:31N 40°42' W 074°08'3 3.5
2014-Sep-28 00:33N 40°39' W 074°06'2 2.1
2014-Sep-27 23:33N 40°38' W 074°03'3 3.2
2014-Sep-27 22:31N 40°38' W 074°08'0 0.0
2014-Sep-27 20:31N 40°38' W 074°08'0 0.0
2014-Sep-27 16:32N 40°38' W 074°08'0 0.0
2014-Sep-27 15:31N 40°38' W 074°08'0 0.0
2014-Sep-27 14:30N 40°38' W 074°08'1 0.8
2014-Sep-27 13:33N 40°39' W 074°07'1 0.7
2014-Sep-27 12:30N 40°39' W 074°06'1 1.2
2014-Sep-27 11:32N 40°39' W 074°07'3 1.4
2014-Sep-27 09:33N 40°41' W 074°08'3 2.7
2014-Sep-27 08:33N 40°38' W 074°08'0 0.0
2014-Sep-27 07:33N 40°38' W 074°08'0 0.0
2014-Sep-27 06:33N 40°38' W 074°08'0 0.0
2014-Sep-27 05:33N 40°38' W 074°08'0 0.0
2014-Sep-27 04:33N 40°38' W 074°08'0 0.0
2014-Sep-27 03:33N 40°38' W 074°08'2 1.6
2014-Sep-27 02:34N 40°39' W 074°06'1 1.0
2014-Sep-27 01:33N 40°39' W 074°04'4 3.6
2014-Sep-27 00:33N 40°42' W 074°02'4 3.9
2014-Sep-26 23:34N 40°39' W 074°05'2 1.7
2014-Sep-26 22:16N 40°38' W 074°08'0 0.0
2014-Sep-26 20:23N 40°38' W 074°08'0 0.0
2014-Sep-26 19:33N 40°38' W 074°08'0 0.0
2014-Sep-26 18:33N 40°38' W 074°08'0 0.0
2014-Sep-26 17:33N 40°38' W 074°08'0 0.0
2014-Sep-26 16:33N 40°38' W 074°08'0 0.0
2014-Sep-26 15:32N 40°38' W 074°08'0 0.0
2014-Sep-26 14:33N 40°38' W 074°08'0 0.0
2014-Sep-26 13:33N 40°38' W 074°08'0 0.0
2014-Sep-26 12:33N 40°38' W 074°08'3 2.3
2014-Sep-26 11:06N 40°42' W 074°08'2 4.2
2014-Sep-26 10:33N 40°39' W 074°09'3 3.4
2014-Sep-26 09:34N 40°40' W 074°04'0 0.2
2014-Sep-26 08:33N 40°40' W 074°04'1 0.9
2014-Sep-26 07:33N 40°39' W 074°05'2 2.2
2014-Sep-26 06:33N 40°38' W 074°08'0 0.0
2014-Sep-26 05:31N 40°38' W 074°08'0 0.0
2014-Sep-26 04:30N 40°38' W 074°08'0 0.0
2014-Sep-26 03:33N 40°38' W 074°08'0 0.0
2014-Sep-26 02:33N 40°38' W 074°08'0 0.0
2014-Sep-26 01:31N 40°38' W 074°08'0 0.0
2014-Sep-26 00:33N 40°38' W 074°08'0 0.0
2014-Sep-25 21:09N 40°39' W 074°08'0 0.1
2014-Sep-25 19:33N 40°38' W 074°08'0 0.0
2014-Sep-25 18:22N 40°38' W 074°08'0 0.0
2014-Sep-25 17:32N 40°38' W 074°08'0 0.0
2014-Sep-25 16:10N 40°38' W 074°08'0 0.0
2014-Sep-25 15:33N 40°38' W 074°08'0 0.0
2014-Sep-25 14:33N 40°38' W 074°08'0 0.0
2014-Sep-25 13:30N 40°38' W 074°08'0 0.0
2014-Sep-25 12:33N 40°38' W 074°08'0 0.0
2014-Sep-25 11:33N 40°38' W 074°08'0 0.0
2014-Sep-25 10:33N 40°38' W 074°08'0 0.0
2014-Sep-25 09:33N 40°38' W 074°08'0 0.0
2014-Sep-25 08:33N 40°38' W 074°08'0 0.0
2014-Sep-25 07:33N 40°38' W 074°08'0 0.0
2014-Sep-25 06:32N 40°38' W 074°08'0 0.0
2014-Sep-25 05:33N 40°38' W 074°08'0 0.0
2014-Sep-25 04:32N 40°38' W 074°08'0 0.0
2014-Sep-25 03:26N 40°38' W 074°08'0 0.0
2014-Sep-25 02:32N 40°38' W 074°08'0 0.0
2014-Sep-25 01:33N 40°38' W 074°08'0 0.0
2014-Sep-25 00:33N 40°38' W 074°08'0 0.0
2014-Sep-24 23:32N 40°38' W 074°08'0 0.0
2014-Sep-24 22:21N 40°38' W 074°08'0 0.0
2014-Sep-24 19:31N 40°38' W 074°08'0 0.0
2014-Sep-24 18:33N 40°38' W 074°08'0 0.0
2014-Sep-24 17:33N 40°38' W 074°08'0 0.0
2014-Sep-24 15:13N 40°38' W 074°08'0 0.0
2014-Sep-24 14:33N 40°38' W 074°08'0 0.0
2014-Sep-24 13:33N 40°38' W 074°08'0 0.0
2014-Sep-24 12:32N 40°38' W 074°08'0 0.0
2014-Sep-24 11:33N 40°38' W 074°08'1 0.8
2014-Sep-24 10:34N 40°38' W 074°09'2 1.9
2014-Sep-24 09:30N 40°40' W 074°08'2 2.0
2014-Sep-24 08:30N 40°38' W 074°08'10 3.2
2014-Sep-24 05:15N 40°48' W 074°04'5 1.2
2014-Sep-24 01:25N 40°44' W 074°06'3 1.6
2014-Sep-23 23:32N 40°41' W 074°08'3 2.8
2014-Sep-23 22:33N 40°38' W 074°08'0 0.0
2014-Sep-23 21:28N 40°38' W 074°08'0 0.0
2014-Sep-23 20:23N 40°38' W 074°08'0 0.0
2014-Sep-23 19:33N 40°38' W 074°08'7 6.1
2014-Sep-23 18:24N 40°33' W 074°14'1 0.3
2014-Sep-23 15:08N 40°33' W 074°15'5 8.0
2014-Sep-23 14:28N 40°38' W 074°12'4 3.5
2014-Sep-23 13:28N 40°38' W 074°08'0 0.0
2014-Sep-23 12:33N 40°38' W 074°08'0 0.0
2014-Sep-23 11:32N 40°38' W 074°08'0 0.0
2014-Sep-23 10:17N 40°38' W 074°08'0 0.0
2014-Sep-23 08:14N 40°38' W 074°08'0 0.0
2014-Sep-23 07:23N 40°38' W 074°08'0 0.0
2014-Sep-23 04:29N 40°38' W 074°08'0 0.0
2014-Sep-23 03:22N 40°38' W 074°08'0 0.0
2014-Sep-22 23:29N 40°38' W 074°08'2 2.4
2014-Sep-22 22:33N 40°41' W 074°08'1 0.5
2014-Sep-22 21:27N 40°41' W 074°08'2 1.8
2014-Sep-22 20:33N 40°40' W 074°08'1 0.5
2014-Sep-22 18:04N 40°38' W 074°08'0 0.0
2014-Sep-22 17:13N 40°38' W 074°08'0 0.0
2014-Sep-22 16:31N 40°38' W 074°08'0 0.0
2014-Sep-22 15:26N 40°38' W 074°08'0 0.0
2014-Sep-22 14:33N 40°38' W 074°08'0 0.0
2014-Sep-22 13:30N 40°38' W 074°08'0 0.0
2014-Sep-22 12:33N 40°38' W 074°08'0 0.0
2014-Sep-22 11:23N 40°38' W 074°08'3 3.6
2014-Sep-22 10:25N 40°42' W 074°09'1 1.2
2014-Sep-22 09:25N 40°41' W 074°08'2 2.7
2014-Sep-22 08:34N 40°38' W 074°08'0 0.0
2014-Sep-22 07:33N 40°38' W 074°08'0 0.0
2014-Sep-22 06:33N 40°38' W 074°08'0 0.0
2014-Sep-22 05:33N 40°38' W 074°08'0 0.0
2014-Sep-22 04:34N 40°38' W 074°08'0 0.0
2014-Sep-22 03:33N 40°38' W 074°08'0 0.0
2014-Sep-22 02:33N 40°38' W 074°08'0 0.0
2014-Sep-22 01:33N 40°38' W 074°08'0 0.0
2014-Sep-22 00:04N 40°38' W 074°08'0 0.0
2014-Sep-21 23:29N 40°38' W 074°08'0 0.0
2014-Sep-21 22:32N 40°38' W 074°08'  

Dump ship's entire track history